»·PEaware :: SWA798 KSBA-KSNA

SWA798 :: KSBA-KSNA

FLIGHT INFORMATION

Flight Status: Arrived
Operator:
Southwest Airlines
More flights by this operator :: More flights under this callsign
Pilot: Ben F. (2808)
Aircraft: BOEING 737-800
(B738)
More flights by this aircraft type
Origin: KSBA Santa Barbara Mun
United States
Destination: KSNA John Wayne-Orange Co
United States
More flights between these airports :: More routes between these airports
Route: +KWANG VTU V208 SXC SLI
File this flight plan on PilotEdge
Remarks: SBAP8
Altitude:
(Current/Filed)
11,000ft
Speed:
(Current/Filed)
352kts
Departed: 14-Nov-19 06:19 PM
Arrived: 14-Nov-19 06:55 PM
Distance/Time
Traveled:
108nm/0:36
Distance/Time
To Go:
Arrived

Flight Plot

Page will automatically refresh every two minutes.


Map Options




Map Legend


Flown Route
Filed Route
Departure Airport
Arrival Airport
Navaid (VOR, NDB)
Fix

Horizontal Profiles

Position Reports

Time Latitude Longitude Heading Altitude Ground
Speed
14-Nov-19 18:02 34.424260 -119.836972 104 18ft 0kts
14-Nov-19 18:03 34.424260 -119.836972 104 18ft 0kts
14-Nov-19 18:04 34.424260 -119.836972 104 18ft 0kts
14-Nov-19 18:05 34.424260 -119.836972 104 18ft 0kts
14-Nov-19 18:06 34.424260 -119.836972 104 18ft 0kts
14-Nov-19 18:07 34.424260 -119.836972 104 18ft 0kts
14-Nov-19 18:08 34.424260 -119.836972 104 18ft 0kts
14-Nov-19 18:09 34.424260 -119.836972 104 18ft 0kts
14-Nov-19 18:10 34.424292 -119.837135 96 18ft 2kts
14-Nov-19 18:11 34.424004 -119.837501 345 18ft 2kts
14-Nov-19 18:12 34.423931 -119.837479 345 18ft 0kts
14-Nov-19 18:13 34.423962 -119.837488 345 18ft 3kts
14-Nov-19 18:14 34.426043 -119.838132 345 18ft 15kts
14-Nov-19 18:15 34.426831 -119.834787 60 18ft 4kts
14-Nov-19 18:16 34.427066 -119.834597 5 18ft 0kts
14-Nov-19 18:17 34.427535 -119.834637 342 18ft 13kts
14-Nov-19 18:18 34.427609 -119.849117 268 30ft 153kts
14-Nov-19 18:19 34.426093 -119.904360 268 2936ft 173kts
14-Nov-19 18:20 34.420310 -119.963377 228 2979ft 187kts
14-Nov-19 18:21 34.364526 -119.950418 153 5929ft 226kts
14-Nov-19 18:22 34.304624 -119.910829 153 8009ft 269kts
14-Nov-19 18:23 34.256974 -119.842316 124 8210ft 280kts
14-Nov-19 18:24 34.210135 -119.764602 129 10917ft 306kts
14-Nov-19 18:25 34.156345 -119.677316 129 11009ft 344kts
14-Nov-19 18:26 34.098001 -119.582435 129 11001ft 355kts
14-Nov-19 18:27 34.040028 -119.488046 129 11001ft 350kts
14-Nov-19 18:28 33.982131 -119.393220 129 11001ft 350kts
14-Nov-19 18:29 33.924195 -119.299087 129 11008ft 350kts
14-Nov-19 18:30 33.866047 -119.204992 129 11010ft 350kts
14-Nov-19 18:31 33.809258 -119.113313 130 11001ft 321kts
14-Nov-19 18:32 33.759953 -119.033917 130 10989ft 272kts
14-Nov-19 18:33 33.717463 -118.965633 131 10999ft 246kts
14-Nov-19 18:34 33.675832 -118.898854 131 11013ft 251kts
14-Nov-19 18:35 33.634113 -118.832055 131 11013ft 250kts
14-Nov-19 18:36 33.592249 -118.765146 131 11015ft 250kts
14-Nov-19 18:37 33.551933 -118.697273 113 10977ft 256kts
14-Nov-19 18:38 33.567167 -118.610183 72 9750ft 277kts
14-Nov-19 18:39 33.591818 -118.521981 72 8452ft 280kts
14-Nov-19 18:40 33.614908 -118.437269 72 7750ft 253kts
14-Nov-19 18:41 33.636323 -118.358701 72 6650ft 243kts
14-Nov-19 18:42 33.656901 -118.282340 72 5448ft 237kts
14-Nov-19 18:43 33.676501 -118.208425 72 5006ft 231kts
14-Nov-19 18:44 33.696205 -118.134141 72 5001ft 234kts
14-Nov-19 18:45 33.715971 -118.059824 72 5000ft 233kts
14-Nov-19 18:46 33.735812 -117.985197 72 4998ft 235kts
14-Nov-19 18:47 33.755577 -117.910837 72 4999ft 233kts
14-Nov-19 18:48 33.793354 -117.851327 31 4965ft 236kts
14-Nov-19 18:49 33.839317 -117.800334 91 4132ft 229kts
14-Nov-19 18:50 33.790833 -117.778214 206 3114ft 221kts
14-Nov-19 18:51 33.747510 -117.825150 205 1896ft 199kts
14-Nov-19 18:52 33.702532 -117.851959 202 415ft 162kts
14-Nov-19 18:53 33.672290 -117.871009 207 64ft 58kts
14-Nov-19 18:54 33.669124 -117.871482 116 64ft 5kts
14-Nov-19 18:55 33.672164 -117.868097 27 64ft 17kts

Navigation Log

Ident Type
Flight plan parsing failed, navigation log unavailable